sensor_id;sensor_type;location;lat;lon;timestamp;P1;durP1;ratioP1;P2;durP2;ratioP2
75220;SDS011;63802;53.232;6.570;2023-02-24T00:01:25;3.78;;;1.30;;
75220;SDS011;63802;53.232;6.570;2023-02-24T00:04:01;5.15;;;1.20;;
75220;SDS011;63802;53.232;6.570;2023-02-24T00:06:28;5.65;;;1.48;;
75220;SDS011;63802;53.232;6.570;2023-02-24T00:09:04;9.77;;;1.90;;
75220;SDS011;63802;53.232;6.570;2023-02-24T00:11:32;3.25;;;1.10;;
75220;SDS011;63802;53.232;6.570;2023-02-24T00:13:58;3.50;;;0.88;;
75220;SDS011;63802;53.232;6.570;2023-02-24T00:16:24;4.05;;;1.00;;
75220;SDS011;63802;53.232;6.570;2023-02-24T00:18:51;4.85;;;1.15;;
75220;SDS011;63802;53.232;6.570;2023-02-24T00:21:16;3.50;;;1.02;;
75220;SDS011;63802;53.232;6.570;2023-02-24T00:23:43;3.92;;;1.05;;
75220;SDS011;63802;53.232;6.570;2023-02-24T00:26:11;10.45;;;1.35;;
75220;SDS011;63802;53.232;6.570;2023-02-24T00:28:38;5.13;;;1.20;;
75220;SDS011;63802;53.232;6.570;2023-02-24T00:31:09;5.60;;;1.30;;
75220;SDS011;63802;53.232;6.570;2023-02-24T00:33:40;5.15;;;1.13;;
75220;SDS011;63802;53.232;6.570;2023-02-24T00:36:11;8.23;;;1.50;;
75220;SDS011;63802;53.232;6.570;2023-02-24T00:38:40;9.38;;;1.25;;
75220;SDS011;63802;53.232;6.570;2023-02-24T00:41:12;2.95;;;1.05;;
75220;SDS011;63802;53.232;6.570;2023-02-24T00:43:42;8.40;;;1.50;;
75220;SDS011;63802;53.232;6.570;2023-02-24T00:46:16;3.20;;;0.85;;
75220;SDS011;63802;53.232;6.570;2023-02-24T00:48:43;4.40;;;1.02;;
75220;SDS011;63802;53.232;6.570;2023-02-24T00:51:17;7.32;;;1.00;;
75220;SDS011;63802;53.232;6.570;2023-02-24T00:53:47;3.85;;;1.20;;
75220;SDS011;63802;53.232;6.570;2023-02-24T00:56:13;7.75;;;1.30;;
75220;SDS011;63802;53.232;6.570;2023-02-24T00:58:40;4.20;;;1.33;;
75220;SDS011;63802;53.232;6.570;2023-02-24T01:01:14;6.75;;;1.25;;
75220;SDS011;63802;53.232;6.570;2023-02-24T01:03:41;4.63;;;1.05;;
75220;SDS011;63802;53.232;6.570;2023-02-24T01:06:08;8.48;;;1.20;;
75220;SDS011;63802;53.232;6.570;2023-02-24T01:08:35;5.72;;;0.90;;
75220;SDS011;63802;53.232;6.570;2023-02-24T01:11:04;5.85;;;1.38;;
75220;SDS011;63802;53.232;6.570;2023-02-24T01:13:48;6.93;;;1.13;;
75220;SDS011;63802;53.232;6.570;2023-02-24T01:16:14;6.47;;;1.05;;
75220;SDS011;63802;53.232;6.570;2023-02-24T01:18:43;6.90;;;1.20;;
75220;SDS011;63802;53.232;6.570;2023-02-24T01:21:13;1.48;;;0.80;;
75220;SDS011;63802;53.232;6.570;2023-02-24T01:23:40;9.63;;;1.10;;
75220;SDS011;63802;53.232;6.570;2023-02-24T01:26:07;4.20;;;0.80;;
75220;SDS011;63802;53.232;6.570;2023-02-24T01:28:33;4.80;;;1.08;;
75220;SDS011;63802;53.232;6.570;2023-02-24T01:31:00;1.38;;;0.77;;
75220;SDS011;63802;53.232;6.570;2023-02-24T01:33:27;4.15;;;1.13;;
75220;SDS011;63802;53.232;6.570;2023-02-24T01:35:54;10.10;;;1.48;;
75220;SDS011;63802;53.232;6.570;2023-02-24T01:38:19;3.92;;;1.23;;
75220;SDS011;63802;53.232;6.570;2023-02-24T01:40:59;4.40;;;1.10;;
75220;SDS011;63802;53.232;6.570;2023-02-24T01:43:25;6.03;;;1.10;;
75220;SDS011;63802;53.232;6.570;2023-02-24T01:45:52;9.27;;;1.13;;
75220;SDS011;63802;53.232;6.570;2023-02-24T01:48:18;10.57;;;1.95;;
75220;SDS011;63802;53.232;6.570;2023-02-24T01:50:44;6.45;;;1.00;;
75220;SDS011;63802;53.232;6.570;2023-02-24T01:53:10;1.85;;;1.00;;
75220;SDS011;63802;53.232;6.570;2023-02-24T01:55:40;3.90;;;0.90;;
75220;SDS011;63802;53.232;6.570;2023-02-24T01:58:12;5.25;;;1.27;;
75220;SDS011;63802;53.232;6.570;2023-02-24T02:00:45;3.08;;;1.10;;
75220;SDS011;63802;53.232;6.570;2023-02-24T02:03:17;5.70;;;1.35;;
75220;SDS011;63802;53.232;6.570;2023-02-24T02:05:48;7.20;;;1.10;;
75220;SDS011;63802;53.232;6.570;2023-02-24T02:08:16;2.40;;;1.10;;
75220;SDS011;63802;53.232;6.570;2023-02-24T02:10:43;12.45;;;2.35;;
75220;SDS011;63802;53.232;6.570;2023-02-24T02:13:10;6.43;;;1.10;;
75220;SDS011;63802;53.232;6.570;2023-02-24T02:24:48;2.30;;;1.30;;
75220;SDS011;63802;53.232;6.570;2023-02-24T02:38:44;3.33;;;1.17;;
75220;SDS011;63802;53.232;6.570;2023-02-24T02:44:34;4.18;;;1.10;;
75220;SDS011;63802;53.232;6.570;2023-02-24T02:47:20;4.32;;;1.98;;
75220;SDS011;63802;53.232;6.570;2023-02-24T02:49:51;10.40;;;1.70;;
75220;SDS011;63802;53.232;6.570;2023-02-24T02:52:40;6.20;;;1.17;;
75220;SDS011;63802;53.232;6.570;2023-02-24T02:55:13;4.05;;;1.50;;
75220;SDS011;63802;53.232;6.570;2023-02-24T02:57:48;2.88;;;0.88;;
75220;SDS011;63802;53.232;6.570;2023-02-24T03:00:18;14.20;;;1.40;;
75220;SDS011;63802;53.232;6.570;2023-02-24T03:02:51;9.25;;;1.27;;
75220;SDS011;63802;53.232;6.570;2023-02-24T03:05:21;5.00;;;1.40;;
75220;SDS011;63802;53.232;6.570;2023-02-24T03:07:54;4.55;;;1.40;;
75220;SDS011;63802;53.232;6.570;2023-02-24T03:10:26;3.60;;;1.20;;
75220;SDS011;63802;53.232;6.570;2023-02-24T03:12:57;5.13;;;1.23;;
75220;SDS011;63802;53.232;6.570;2023-02-24T03:15:27;4.40;;;1.00;;
75220;SDS011;63802;53.232;6.570;2023-02-24T03:17:58;9.02;;;1.60;;
75220;SDS011;63802;53.232;6.570;2023-02-24T03:20:50;6.30;;;1.77;;
75220;SDS011;63802;53.232;6.570;2023-02-24T03:23:20;8.52;;;1.40;;
75220;SDS011;63802;53.232;6.570;2023-02-24T03:34:13;8.57;;;1.23;;
75220;SDS011;63802;53.232;6.570;2023-02-24T03:37:01;10.20;;;1.17;;
75220;SDS011;63802;53.232;6.570;2023-02-24T03:39:27;5.15;;;1.15;;
75220;SDS011;63802;53.232;6.570;2023-02-24T03:42:07;11.13;;;1.63;;
75220;SDS011;63802;53.232;6.570;2023-02-24T03:44:37;6.25;;;1.60;;
75220;SDS011;63802;53.232;6.570;2023-02-24T03:47:02;4.32;;;1.17;;
75220;SDS011;63802;53.232;6.570;2023-02-24T03:49:28;7.55;;;1.52;;
75220;SDS011;63802;53.232;6.570;2023-02-24T03:51:59;5.07;;;1.17;;
75220;SDS011;63802;53.232;6.570;2023-02-24T04:00:07;3.72;;;1.38;;
75220;SDS011;63802;53.232;6.570;2023-02-24T04:02:49;2.78;;;1.25;;
75220;SDS011;63802;53.232;6.570;2023-02-24T04:05:27;5.20;;;1.58;;
75220;SDS011;63802;53.232;6.570;2023-02-24T04:07:59;6.70;;;1.27;;
75220;SDS011;63802;53.232;6.570;2023-02-24T04:10:50;8.13;;;1.27;;
75220;SDS011;63802;53.232;6.570;2023-02-24T04:16:08;5.10;;;1.10;;
75220;SDS011;63802;53.232;6.570;2023-02-24T04:18:40;5.10;;;1.20;;
75220;SDS011;63802;53.232;6.570;2023-02-24T04:21:12;5.82;;;1.45;;
75220;SDS011;63802;53.232;6.570;2023-02-24T04:23:41;2.95;;;1.23;;
75220;SDS011;63802;53.232;6.570;2023-02-24T04:26:09;3.78;;;1.20;;
75220;SDS011;63802;53.232;6.570;2023-02-24T04:28:38;7.30;;;1.00;;
75220;SDS011;63802;53.232;6.570;2023-02-24T04:31:06;4.35;;;1.10;;
75220;SDS011;63802;53.232;6.570;2023-02-24T04:33:40;5.20;;;0.90;;
75220;SDS011;63802;53.232;6.570;2023-02-24T04:36:06;3.90;;;1.08;;
75220;SDS011;63802;53.232;6.570;2023-02-24T04:38:33;7.80;;;1.23;;
75220;SDS011;63802;53.232;6.570;2023-02-24T04:40:59;4.57;;;1.17;;
75220;SDS011;63802;53.232;6.570;2023-02-24T04:43:25;9.30;;;0.90;;
75220;SDS011;63802;53.232;6.570;2023-02-24T04:45:50;9.38;;;1.30;;
75220;SDS011;63802;53.232;6.570;2023-02-24T04:48:16;2.35;;;0.90;;
75220;SDS011;63802;53.232;6.570;2023-02-24T04:50:43;4.45;;;1.23;;
75220;SDS011;63802;53.232;6.570;2023-02-24T04:53:10;5.57;;;1.40;;
75220;SDS011;63802;53.232;6.570;2023-02-24T04:55:39;10.05;;;1.90;;
75220;SDS011;63802;53.232;6.570;2023-02-24T04:58:13;8.82;;;1.17;;
75220;SDS011;63802;53.232;6.570;2023-02-24T05:00:43;5.28;;;0.95;;
75220;SDS011;63802;53.232;6.570;2023-02-24T05:03:12;9.05;;;1.70;;
75220;SDS011;63802;53.232;6.570;2023-02-24T05:05:38;8.30;;;1.50;;
75220;SDS011;63802;53.232;6.570;2023-02-24T05:08:07;4.63;;;1.50;;
75220;SDS011;63802;53.232;6.570;2023-02-24T05:10:35;11.77;;;2.08;;
75220;SDS011;63802;53.232;6.570;2023-02-24T05:13:03;6.05;;;1.13;;
75220;SDS011;63802;53.232;6.570;2023-02-24T05:15:30;6.85;;;1.20;;
75220;SDS011;63802;53.232;6.570;2023-02-24T05:18:00;10.25;;;1.73;;
75220;SDS011;63802;53.232;6.570;2023-02-24T05:20:42;6.90;;;1.33;;
75220;SDS011;63802;53.232;6.570;2023-02-24T05:23:31;4.43;;;1.10;;
75220;SDS011;63802;53.232;6.570;2023-02-24T05:25:59;5.07;;;1.25;;
75220;SDS011;63802;53.232;6.570;2023-02-24T05:28:27;6.30;;;1.48;;
75220;SDS011;63802;53.232;6.570;2023-02-24T05:31:06;5.40;;;1.77;;
75220;SDS011;63802;53.232;6.570;2023-02-24T05:33:39;6.28;;;1.17;;
75220;SDS011;63802;53.232;6.570;2023-02-24T05:36:08;6.55;;;1.38;;
75220;SDS011;63802;53.232;6.570;2023-02-24T05:38:44;4.22;;;1.23;;
75220;SDS011;63802;53.232;6.570;2023-02-24T05:41:17;1.75;;;0.93;;
75220;SDS011;63802;53.232;6.570;2023-02-24T05:43:50;7.95;;;1.63;;
75220;SDS011;63802;53.232;6.570;2023-02-24T05:46:25;11.30;;;1.50;;
75220;SDS011;63802;53.232;6.570;2023-02-24T05:48:53;12.50;;;1.80;;
75220;SDS011;63802;53.232;6.570;2023-02-24T05:51:21;3.60;;;1.40;;
75220;SDS011;63802;53.232;6.570;2023-02-24T05:53:49;3.65;;;1.27;;
75220;SDS011;63802;53.232;6.570;2023-02-24T05:56:20;4.40;;;1.20;;
75220;SDS011;63802;53.232;6.570;2023-02-24T05:58:47;5.43;;;1.58;;
75220;SDS011;63802;53.232;6.570;2023-02-24T06:01:14;8.65;;;1.70;;
75220;SDS011;63802;53.232;6.570;2023-02-24T06:03:44;8.60;;;1.80;;
75220;SDS011;63802;53.232;6.570;2023-02-24T06:06:14;10.70;;;1.80;;
75220;SDS011;63802;53.232;6.570;2023-02-24T06:08:40;8.40;;;2.00;;
75220;SDS011;63802;53.232;6.570;2023-02-24T06:11:09;8.30;;;1.80;;
75220;SDS011;63802;53.232;6.570;2023-02-24T06:13:38;7.43;;;1.35;;
75220;SDS011;63802;53.232;6.570;2023-02-24T06:16:07;10.05;;;2.03;;
75220;SDS011;63802;53.232;6.570;2023-02-24T06:18:32;11.40;;;3.05;;
75220;SDS011;63802;53.232;6.570;2023-02-24T06:21:00;7.18;;;1.88;;
75220;SDS011;63802;53.232;6.570;2023-02-24T06:23:26;8.80;;;2.20;;
75220;SDS011;63802;53.232;6.570;2023-02-24T06:25:52;9.57;;;1.90;;
75220;SDS011;63802;53.232;6.570;2023-02-24T06:28:21;11.75;;;1.75;;
75220;SDS011;63802;53.232;6.570;2023-02-24T06:30:48;12.13;;;2.35;;
75220;SDS011;63802;53.232;6.570;2023-02-24T06:33:16;6.78;;;1.95;;
75220;SDS011;63802;53.232;6.570;2023-02-24T06:35:42;12.82;;;2.60;;
75220;SDS011;63802;53.232;6.570;2023-02-24T06:38:08;5.25;;;1.85;;
75220;SDS011;63802;53.232;6.570;2023-02-24T06:40:34;10.57;;;2.13;;
75220;SDS011;63802;53.232;6.570;2023-02-24T06:43:01;12.63;;;3.03;;
75220;SDS011;63802;53.232;6.570;2023-02-24T06:45:27;6.40;;;2.40;;
75220;SDS011;63802;53.232;6.570;2023-02-24T06:47:54;10.27;;;2.45;;
75220;SDS011;63802;53.232;6.570;2023-02-24T06:50:20;10.00;;;3.00;;
75220;SDS011;63802;53.232;6.570;2023-02-24T06:52:47;13.48;;;3.20;;
75220;SDS011;63802;53.232;6.570;2023-02-24T06:55:14;15.43;;;3.10;;
75220;SDS011;63802;53.232;6.570;2023-02-24T06:57:53;6.78;;;2.92;;
75220;SDS011;63802;53.232;6.570;2023-02-24T07:03:01;12.75;;;3.55;;
75220;SDS011;63802;53.232;6.570;2023-02-24T07:05:38;9.05;;;3.13;;
75220;SDS011;63802;53.232;6.570;2023-02-24T07:08:15;13.98;;;3.45;;
75220;SDS011;63802;53.232;6.570;2023-02-24T07:10:43;16.33;;;3.63;;
75220;SDS011;63802;53.232;6.570;2023-02-24T07:13:08;24.90;;;4.53;;
75220;SDS011;63802;53.232;6.570;2023-02-24T07:15:34;13.93;;;3.22;;
75220;SDS011;63802;53.232;6.570;2023-02-24T07:18:02;15.57;;;3.78;;
75220;SDS011;63802;53.232;6.570;2023-02-24T07:20:28;10.93;;;3.15;;
75220;SDS011;63802;53.232;6.570;2023-02-24T07:22:54;16.75;;;4.28;;
75220;SDS011;63802;53.232;6.570;2023-02-24T07:25:20;18.08;;;3.95;;
75220;SDS011;63802;53.232;6.570;2023-02-24T07:27:57;14.80;;;4.25;;
75220;SDS011;63802;53.232;6.570;2023-02-24T07:30:29;13.00;;;4.10;;
75220;SDS011;63802;53.232;6.570;2023-02-24T07:32:57;13.10;;;3.25;;
75220;SDS011;63802;53.232;6.570;2023-02-24T07:35:23;15.38;;;3.83;;
75220;SDS011;63802;53.232;6.570;2023-02-24T07:37:49;17.67;;;3.75;;
75220;SDS011;63802;53.232;6.570;2023-02-24T07:40:15;20.85;;;4.63;;
75220;SDS011;63802;53.232;6.570;2023-02-24T07:42:44;11.77;;;3.45;;
75220;SDS011;63802;53.232;6.570;2023-02-24T07:45:11;18.17;;;3.75;;
75220;SDS011;63802;53.232;6.570;2023-02-24T07:47:38;16.77;;;3.53;;
75220;SDS011;63802;53.232;6.570;2023-02-24T07:50:05;16.05;;;3.17;;
75220;SDS011;63802;53.232;6.570;2023-02-24T07:52:37;10.52;;;3.53;;
75220;SDS011;63802;53.232;6.570;2023-02-24T07:55:03;15.38;;;3.53;;
75220;SDS011;63802;53.232;6.570;2023-02-24T07:57:29;14.05;;;3.90;;
75220;SDS011;63802;53.232;6.570;2023-02-24T07:59:57;14.35;;;3.20;;
75220;SDS011;63802;53.232;6.570;2023-02-24T08:02:24;12.38;;;3.83;;
75220;SDS011;63802;53.232;6.570;2023-02-24T08:04:50;11.45;;;3.40;;
75220;SDS011;63802;53.232;6.570;2023-02-24T08:07:16;13.98;;;3.55;;
75220;SDS011;63802;53.232;6.570;2023-02-24T08:09:48;21.13;;;3.38;;
75220;SDS011;63802;53.232;6.570;2023-02-24T08:12:32;20.10;;;3.22;;
75220;SDS011;63802;53.232;6.570;2023-02-24T08:14:59;11.82;;;3.70;;
75220;SDS011;63802;53.232;6.570;2023-02-24T08:17:32;10.43;;;3.20;;
75220;SDS011;63802;53.232;6.570;2023-02-24T08:19:58;11.98;;;3.35;;
75220;SDS011;63802;53.232;6.570;2023-02-24T08:22:36;16.63;;;3.38;;
75220;SDS011;63802;53.232;6.570;2023-02-24T08:25:02;14.35;;;3.63;;
75220;SDS011;63802;53.232;6.570;2023-02-24T08:27:32;12.45;;;4.07;;
75220;SDS011;63802;53.232;6.570;2023-02-24T08:30:03;13.20;;;3.38;;
75220;SDS011;63802;53.232;6.570;2023-02-24T08:32:34;11.40;;;3.33;;
75220;SDS011;63802;53.232;6.570;2023-02-24T08:35:15;10.07;;;3.00;;
75220;SDS011;63802;53.232;6.570;2023-02-24T08:37:42;10.88;;;3.20;;
75220;SDS011;63802;53.232;6.570;2023-02-24T08:40:23;8.60;;;3.40;;
75220;SDS011;63802;53.232;6.570;2023-02-24T08:43:14;9.65;;;2.55;;
75220;SDS011;63802;53.232;6.570;2023-02-24T08:45:50;8.27;;;2.83;;
75220;SDS011;63802;53.232;6.570;2023-02-24T08:48:24;9.25;;;3.60;;
75220;SDS011;63802;53.232;6.570;2023-02-24T08:51:01;9.32;;;3.10;;
75220;SDS011;63802;53.232;6.570;2023-02-24T08:53:36;10.07;;;2.90;;
75220;SDS011;63802;53.232;6.570;2023-02-24T08:56:07;6.43;;;3.13;;
75220;SDS011;63802;53.232;6.570;2023-02-24T08:58:36;16.48;;;3.95;;
75220;SDS011;63802;53.232;6.570;2023-02-24T09:01:05;10.57;;;3.42;;
75220;SDS011;63802;53.232;6.570;2023-02-24T09:03:43;9.35;;;3.40;;
75220;SDS011;63802;53.232;6.570;2023-02-24T09:06:17;7.95;;;3.45;;
75220;SDS011;63802;53.232;6.570;2023-02-24T09:08:50;9.23;;;3.45;;
75220;SDS011;63802;53.232;6.570;2023-02-24T09:11:40;15.45;;;3.70;;
75220;SDS011;63802;53.232;6.570;2023-02-24T09:14:09;8.43;;;3.38;;
75220;SDS011;63802;53.232;6.570;2023-02-24T09:16:41;10.32;;;3.63;;
75220;SDS011;63802;53.232;6.570;2023-02-24T09:19:27;11.45;;;4.13;;
75220;SDS011;63802;53.232;6.570;2023-02-24T09:22:08;10.07;;;4.15;;
75220;SDS011;63802;53.232;6.570;2023-02-24T09:24:53;11.98;;;4.20;;
75220;SDS011;63802;53.232;6.570;2023-02-24T09:27:39;12.55;;;4.38;;
75220;SDS011;63802;53.232;6.570;2023-02-24T09:30:08;14.10;;;4.50;;
75220;SDS011;63802;53.232;6.570;2023-02-24T09:32:49;11.07;;;4.25;;
75220;SDS011;63802;53.232;6.570;2023-02-24T09:35:25;15.48;;;4.50;;
75220;SDS011;63802;53.232;6.570;2023-02-24T09:37:56;11.65;;;4.65;;
75220;SDS011;63802;53.232;6.570;2023-02-24T09:40:24;16.42;;;4.15;;
75220;SDS011;63802;53.232;6.570;2023-02-24T09:43:04;16.80;;;4.28;;
75220;SDS011;63802;53.232;6.570;2023-02-24T09:45:41;21.17;;;4.25;;
75220;SDS011;63802;53.232;6.570;2023-02-24T09:48:18;13.68;;;3.63;;
75220;SDS011;63802;53.232;6.570;2023-02-24T09:50:48;17.00;;;2.90;;
75220;SDS011;63802;53.232;6.570;2023-02-24T09:53:28;13.70;;;2.57;;
75220;SDS011;63802;53.232;6.570;2023-02-24T09:56:04;18.83;;;3.08;;
75220;SDS011;63802;53.232;6.570;2023-02-24T09:58:39;22.35;;;2.75;;
75220;SDS011;63802;53.232;6.570;2023-02-24T10:06:40;19.02;;;3.40;;
75220;SDS011;63802;53.232;6.570;2023-02-24T10:11:52;19.60;;;2.95;;
75220;SDS011;63802;53.232;6.570;2023-02-24T10:14:42;22.67;;;3.35;;
75220;SDS011;63802;53.232;6.570;2023-02-24T10:17:56;19.55;;;3.00;;
75220;SDS011;63802;53.232;6.570;2023-02-24T10:20:31;19.67;;;3.00;;
75220;SDS011;63802;53.232;6.570;2023-02-24T10:25:46;16.63;;;3.13;;
75220;SDS011;63802;53.232;6.570;2023-02-24T10:28:41;18.73;;;2.78;;
75220;SDS011;63802;53.232;6.570;2023-02-24T10:33:55;16.63;;;3.20;;
75220;SDS011;63802;53.232;6.570;2023-02-24T10:36:26;27.90;;;3.17;;
75220;SDS011;63802;53.232;6.570;2023-02-24T10:39:01;14.05;;;2.67;;
75220;SDS011;63802;53.232;6.570;2023-02-24T10:41:54;15.68;;;3.20;;
75220;SDS011;63802;53.232;6.570;2023-02-24T10:44:24;21.80;;;2.95;;
75220;SDS011;63802;53.232;6.570;2023-02-24T10:47:07;26.20;;;4.00;;
75220;SDS011;63802;53.232;6.570;2023-02-24T10:49:40;31.17;;;3.10;;
75220;SDS011;63802;53.232;6.570;2023-02-24T10:52:10;21.00;;;3.22;;
75220;SDS011;63802;53.232;6.570;2023-02-24T10:54:57;24.88;;;3.33;;
75220;SDS011;63802;53.232;6.570;2023-02-24T10:57:33;25.70;;;3.15;;
75220;SDS011;63802;53.232;6.570;2023-02-24T11:00:18;26.05;;;3.60;;
75220;SDS011;63802;53.232;6.570;2023-02-24T11:02:56;24.08;;;4.55;;
75220;SDS011;63802;53.232;6.570;2023-02-24T11:05:38;18.23;;;2.85;;
75220;SDS011;63802;53.232;6.570;2023-02-24T11:08:20;20.60;;;3.50;;
75220;SDS011;63802;53.232;6.570;2023-02-24T11:13:52;15.80;;;2.83;;
75220;SDS011;63802;53.232;6.570;2023-02-24T11:16:45;22.13;;;3.70;;
75220;SDS011;63802;53.232;6.570;2023-02-24T11:19:43;19.38;;;2.97;;
75220;SDS011;63802;53.232;6.570;2023-02-24T11:22:17;21.45;;;3.42;;
75220;SDS011;63802;53.232;6.570;2023-02-24T11:24:48;22.15;;;3.58;;
75220;SDS011;63802;53.232;6.570;2023-02-24T11:27:17;21.10;;;3.75;;
75220;SDS011;63802;53.232;6.570;2023-02-24T11:35:24;23.27;;;4.28;;
75220;SDS011;63802;53.232;6.570;2023-02-24T11:40:44;22.95;;;4.20;;
75220;SDS011;63802;53.232;6.570;2023-02-24T11:43:18;19.00;;;3.03;;
75220;SDS011;63802;53.232;6.570;2023-02-24T11:48:42;24.23;;;3.65;;
75220;SDS011;63802;53.232;6.570;2023-02-24T11:51:30;26.27;;;3.97;;
75220;SDS011;63802;53.232;6.570;2023-02-24T11:53:59;28.55;;;3.60;;
75220;SDS011;63802;53.232;6.570;2023-02-24T11:56:30;13.45;;;2.20;;
75220;SDS011;63802;53.232;6.570;2023-02-24T11:59:05;11.82;;;2.00;;
75220;SDS011;63802;53.232;6.570;2023-02-24T12:01:49;15.52;;;2.15;;
75220;SDS011;63802;53.232;6.570;2023-02-24T12:04:27;13.65;;;2.28;;
75220;SDS011;63802;53.232;6.570;2023-02-24T12:07:10;15.27;;;2.33;;
75220;SDS011;63802;53.232;6.570;2023-02-24T12:09:47;17.75;;;2.30;;
75220;SDS011;63802;53.232;6.570;2023-02-24T12:14:59;12.63;;;2.75;;
75220;SDS011;63802;53.232;6.570;2023-02-24T12:20:08;11.75;;;1.77;;
75220;SDS011;63802;53.232;6.570;2023-02-24T12:22:53;21.27;;;3.65;;
75220;SDS011;63802;53.232;6.570;2023-02-24T12:25:24;16.40;;;1.98;;
75220;SDS011;63802;53.232;6.570;2023-02-24T12:28:10;10.48;;;2.35;;
75220;SDS011;63802;53.232;6.570;2023-02-24T12:39:26;14.73;;;2.38;;
75220;SDS011;63802;53.232;6.570;2023-02-24T12:47:48;7.38;;;1.30;;
75220;SDS011;63802;53.232;6.570;2023-02-24T12:53:43;4.70;;;1.45;;
75220;SDS011;63802;53.232;6.570;2023-02-24T12:56:12;11.85;;;1.00;;
75220;SDS011;63802;53.232;6.570;2023-02-24T12:59:00;3.17;;;1.00;;
75220;SDS011;63802;53.232;6.570;2023-02-24T13:01:54;2.35;;;0.85;;
75220;SDS011;63802;53.232;6.570;2023-02-24T13:07:06;5.85;;;1.08;;
75220;SDS011;63802;53.232;6.570;2023-02-24T13:09:56;5.88;;;1.08;;
75220;SDS011;63802;53.232;6.570;2023-02-24T13:15:16;4.57;;;0.90;;
75220;SDS011;63802;53.232;6.570;2023-02-24T13:17:47;3.78;;;1.27;;
75220;SDS011;63802;53.232;6.570;2023-02-24T13:22:50;7.35;;;1.20;;
75220;SDS011;63802;53.232;6.570;2023-02-24T13:25:17;6.22;;;0.77;;
75220;SDS011;63802;53.232;6.570;2023-02-24T13:27:57;6.95;;;1.05;;
75220;SDS011;63802;53.232;6.570;2023-02-24T13:30:33;6.40;;;1.55;;
75220;SDS011;63802;53.232;6.570;2023-02-24T13:33:03;9.82;;;1.10;;
75220;SDS011;63802;53.232;6.570;2023-02-24T13:35:31;4.45;;;0.88;;
75220;SDS011;63802;53.232;6.570;2023-02-24T13:38:07;5.43;;;1.33;;
75220;SDS011;63802;53.232;6.570;2023-02-24T13:40:34;5.15;;;0.90;;
75220;SDS011;63802;53.232;6.570;2023-02-24T13:43:01;6.75;;;1.00;;
75220;SDS011;63802;53.232;6.570;2023-02-24T13:45:32;2.42;;;0.52;;
75220;SDS011;63802;53.232;6.570;2023-02-24T13:50:53;3.75;;;1.58;;
75220;SDS011;63802;53.232;6.570;2023-02-24T13:53:28;2.03;;;0.88;;
75220;SDS011;63802;53.232;6.570;2023-02-24T13:58:44;4.00;;;1.08;;
75220;SDS011;63802;53.232;6.570;2023-02-24T14:04:01;4.53;;;1.05;;
75220;SDS011;63802;53.232;6.570;2023-02-24T14:06:29;1.77;;;0.47;;
75220;SDS011;63802;53.232;6.570;2023-02-24T14:08:59;7.35;;;1.38;;
75220;SDS011;63802;53.232;6.570;2023-02-24T14:11:30;5.20;;;1.30;;
75220;SDS011;63802;53.232;6.570;2023-02-24T14:14:00;5.63;;;1.15;;
75220;SDS011;63802;53.232;6.570;2023-02-24T14:16:36;14.27;;;1.52;;
75220;SDS011;63802;53.232;6.570;2023-02-24T14:19:05;12.73;;;2.10;;
75220;SDS011;63802;53.232;6.570;2023-02-24T14:21:45;15.70;;;2.33;;
75220;SDS011;63802;53.232;6.570;2023-02-24T14:24:19;20.95;;;1.90;;
75220;SDS011;63802;53.232;6.570;2023-02-24T14:26:55;10.00;;;1.70;;
75220;SDS011;63802;53.232;6.570;2023-02-24T14:29:24;9.77;;;1.52;;
75220;SDS011;63802;53.232;6.570;2023-02-24T14:31:54;10.80;;;1.70;;
75220;SDS011;63802;53.232;6.570;2023-02-24T14:34:24;12.98;;;1.52;;
75220;SDS011;63802;53.232;6.570;2023-02-24T14:36:52;8.52;;;1.33;;
75220;SDS011;63802;53.232;6.570;2023-02-24T14:39:24;11.80;;;1.70;;
75220;SDS011;63802;53.232;6.570;2023-02-24T14:42:29;8.13;;;1.80;;
75220;SDS011;63802;53.232;6.570;2023-02-24T14:44:50;15.38;;;2.03;;
75220;SDS011;63802;53.232;6.570;2023-02-24T14:47:18;20.60;;;2.13;;
75220;SDS011;63802;53.232;6.570;2023-02-24T14:50:20;8.88;;;1.45;;
75220;SDS011;63802;53.232;6.570;2023-02-24T14:52:50;12.40;;;1.88;;
75220;SDS011;63802;53.232;6.570;2023-02-24T14:55:26;12.38;;;1.85;;
75220;SDS011;63802;53.232;6.570;2023-02-24T14:58:11;12.02;;;1.67;;
75220;SDS011;63802;53.232;6.570;2023-02-24T15:00:50;8.98;;;1.48;;
75220;SDS011;63802;53.232;6.570;2023-02-24T15:03:36;18.90;;;2.53;;
75220;SDS011;63802;53.232;6.570;2023-02-24T15:06:15;11.05;;;2.40;;
75220;SDS011;63802;53.232;6.570;2023-02-24T15:08:50;20.42;;;2.42;;
75220;SDS011;63802;53.232;6.570;2023-02-24T15:11:22;10.90;;;2.20;;
75220;SDS011;63802;53.232;6.570;2023-02-24T15:13:57;11.32;;;1.77;;
75220;SDS011;63802;53.232;6.570;2023-02-24T15:16:26;16.10;;;2.10;;
75220;SDS011;63802;53.232;6.570;2023-02-24T15:19:26;6.30;;;1.20;;
75220;SDS011;63802;53.232;6.570;2023-02-24T15:24:48;3.45;;;0.85;;
75220;SDS011;63802;53.232;6.570;2023-02-24T15:29:41;7.90;;;1.20;;
75220;SDS011;63802;53.232;6.570;2023-02-24T15:32:15;9.60;;;1.20;;
75220;SDS011;63802;53.232;6.570;2023-02-24T15:34:47;5.18;;;1.13;;
75220;SDS011;63802;53.232;6.570;2023-02-24T15:37:14;9.77;;;1.45;;
75220;SDS011;63802;53.232;6.570;2023-02-24T15:39:49;11.75;;;1.85;;
75220;SDS011;63802;53.232;6.570;2023-02-24T15:42:20;13.52;;;1.67;;
75220;SDS011;63802;53.232;6.570;2023-02-24T15:44:55;15.45;;;2.25;;
75220;SDS011;63802;53.232;6.570;2023-02-24T15:47:24;13.40;;;2.00;;
75220;SDS011;63802;53.232;6.570;2023-02-24T15:49:56;13.10;;;1.40;;
75220;SDS011;63802;53.232;6.570;2023-02-24T15:52:23;10.55;;;1.40;;
75220;SDS011;63802;53.232;6.570;2023-02-24T15:54:52;7.53;;;1.30;;
75220;SDS011;63802;53.232;6.570;2023-02-24T15:57:19;9.32;;;1.52;;
75220;SDS011;63802;53.232;6.570;2023-02-24T15:59:48;9.43;;;1.58;;
75220;SDS011;63802;53.232;6.570;2023-02-24T16:02:16;4.90;;;0.77;;
75220;SDS011;63802;53.232;6.570;2023-02-24T16:04:47;4.68;;;1.02;;
75220;SDS011;63802;53.232;6.570;2023-02-24T16:07:32;8.30;;;1.55;;
75220;SDS011;63802;53.232;6.570;2023-02-24T16:10:02;8.85;;;2.25;;
75220;SDS011;63802;53.232;6.570;2023-02-24T16:12:31;14.57;;;2.17;;
75220;SDS011;63802;53.232;6.570;2023-02-24T16:15:12;5.47;;;1.05;;
75220;SDS011;63802;53.232;6.570;2023-02-24T16:17:42;13.20;;;1.70;;
75220;SDS011;63802;53.232;6.570;2023-02-24T16:20:12;9.27;;;1.60;;
75220;SDS011;63802;53.232;6.570;2023-02-24T16:22:43;12.25;;;1.50;;
75220;SDS011;63802;53.232;6.570;2023-02-24T16:25:09;6.70;;;1.88;;
75220;SDS011;63802;53.232;6.570;2023-02-24T16:27:38;14.10;;;2.15;;
75220;SDS011;63802;53.232;6.570;2023-02-24T16:30:04;9.63;;;1.60;;
75220;SDS011;63802;53.232;6.570;2023-02-24T16:32:30;10.57;;;1.70;;
75220;SDS011;63802;53.232;6.570;2023-02-24T16:34:56;13.80;;;2.10;;
75220;SDS011;63802;53.232;6.570;2023-02-24T16:37:23;14.05;;;2.10;;
75220;SDS011;63802;53.232;6.570;2023-02-24T16:39:53;10.07;;;2.25;;
75220;SDS011;63802;53.232;6.570;2023-02-24T16:42:19;16.00;;;2.35;;
75220;SDS011;63802;53.232;6.570;2023-02-24T16:44:48;13.40;;;2.40;;
75220;SDS011;63802;53.232;6.570;2023-02-24T16:47:16;9.60;;;1.77;;
75220;SDS011;63802;53.232;6.570;2023-02-24T16:49:44;15.98;;;2.47;;
75220;SDS011;63802;53.232;6.570;2023-02-24T16:52:13;15.18;;;2.20;;
75220;SDS011;63802;53.232;6.570;2023-02-24T16:54:43;12.70;;;2.50;;
75220;SDS011;63802;53.232;6.570;2023-02-24T16:57:09;16.13;;;2.50;;
75220;SDS011;63802;53.232;6.570;2023-02-24T16:59:34;18.13;;;2.60;;
75220;SDS011;63802;53.232;6.570;2023-02-24T17:02:01;19.40;;;2.08;;
75220;SDS011;63802;53.232;6.570;2023-02-24T17:04:27;13.13;;;2.10;;
75220;SDS011;63802;53.232;6.570;2023-02-24T17:06:53;16.65;;;2.13;;